Blantyre, Blantyre Chileka International Airport (FWCL)

NameBlantyre Chileka International Airport
CityBlantyre
CountryMalawi
ICAOFWCL
IATABLZ
Altitude779 m
CoordinatesGoogle Map
Live Air TrafficLiveATC.net
METARFWCL 261100Z 24008KT 9999 FEW022CB BKN025 22/19 Q1016 NOSIG
2020-02-26 11:00:00 Wind: Southwest (240°) 4.12 m/s - Visibility: > 10000 m - Temperature: 22 °C - Dew point: 19 °C - Humidity: 83.2% - Pressure: 1016 hPa

Sorry, no flights used the airport in this database.